createdAt,value
2023-05-21T00:01:17.888Z,18.80
2023-05-21T00:04:20.265Z,18.80
2023-05-21T00:07:23.497Z,18.90
2023-05-21T00:10:25.692Z,18.90
2023-05-21T00:13:28.135Z,18.90
2023-05-21T00:16:30.327Z,18.90
2023-05-21T00:19:33.823Z,18.90
2023-05-21T00:22:36.453Z,18.90
2023-05-21T00:25:38.660Z,18.90
2023-05-21T00:28:40.721Z,18.90
2023-05-21T00:31:42.935Z,18.90
2023-05-21T00:34:45.428Z,18.90
2023-05-21T00:37:47.928Z,18.90
2023-05-21T00:40:50.861Z,18.90
2023-05-21T00:43:53.004Z,18.90
2023-05-21T00:46:55.735Z,18.90
2023-05-21T00:49:58.034Z,18.80
2023-05-21T00:53:00.198Z,18.80
2023-05-21T00:56:03.268Z,18.80
2023-05-21T00:59:05.778Z,18.80
2023-05-21T01:02:09.668Z,18.90
2023-05-21T01:05:13.252Z,18.90
2023-05-21T01:08:16.885Z,18.90
2023-05-21T01:11:19.972Z,18.90
2023-05-21T01:14:24.746Z,18.90
2023-05-21T01:17:29.735Z,18.90
2023-05-21T01:20:32.630Z,18.90
2023-05-21T01:23:34.716Z,18.80
2023-05-21T01:26:39.048Z,18.90
2023-05-21T01:29:41.149Z,18.90
2023-05-21T01:32:56.593Z,18.80
2023-05-21T01:36:09.001Z,18.80
2023-05-21T01:39:31.718Z,18.70
2023-05-21T01:42:36.319Z,18.70
2023-05-21T01:45:42.234Z,18.80
2023-05-21T01:48:44.750Z,18.70
2023-05-21T01:51:47.387Z,18.70
2023-05-21T01:54:51.172Z,18.70
2023-05-21T01:57:55.247Z,18.70
2023-05-21T02:00:57.473Z,18.80
2023-05-21T02:03:59.794Z,18.80
2023-05-21T02:07:03.220Z,18.80
2023-05-21T02:10:05.939Z,18.80
2023-05-21T02:13:08.060Z,18.70
2023-05-21T02:16:12.058Z,18.80
2023-05-21T02:19:14.240Z,18.70
2023-05-21T02:22:16.611Z,18.70
2023-05-21T02:25:22.141Z,18.70
2023-05-21T02:28:24.313Z,18.70
2023-05-21T02:31:26.716Z,18.60
2023-05-21T02:34:32.449Z,18.60
2023-05-21T02:37:35.314Z,18.60
2023-05-21T02:40:37.384Z,18.50
2023-05-21T02:43:39.962Z,18.50
2023-05-21T02:46:42.127Z,18.40
2023-05-21T02:49:44.218Z,18.40
2023-05-21T02:52:46.264Z,18.40
2023-05-21T02:55:48.408Z,18.40
2023-05-21T02:58:52.084Z,18.30
2023-05-21T03:01:54.215Z,18.30
2023-05-21T03:04:56.330Z,18.30
2023-05-21T03:07:58.398Z,18.30
2023-05-21T03:11:00.585Z,18.20
2023-05-21T03:14:04.525Z,18.20
2023-05-21T03:17:08.242Z,18.20
2023-05-21T03:20:16.568Z,18.20
2023-05-21T03:23:18.824Z,18.20
2023-05-21T03:26:22.396Z,18.10
2023-05-21T03:29:24.477Z,18.20
2023-05-21T03:32:26.672Z,18.20
2023-05-21T03:35:29.002Z,18.20
2023-05-21T03:38:31.314Z,18.10
2023-05-21T03:41:33.505Z,18.10
2023-05-21T03:44:35.749Z,18.10
2023-05-21T03:47:37.852Z,18.00
2023-05-21T03:50:40.004Z,18.00
2023-05-21T03:53:42.112Z,17.90
2023-05-21T03:56:44.239Z,17.90
2023-05-21T03:59:46.386Z,17.80
2023-05-21T04:02:48.596Z,17.80
2023-05-21T04:05:51.017Z,17.80
2023-05-21T04:08:53.199Z,17.80
2023-05-21T04:11:57.732Z,17.80
2023-05-21T04:14:59.863Z,17.80
2023-05-21T04:18:02.151Z,17.80
2023-05-21T04:21:04.554Z,17.80
2023-05-21T04:24:06.770Z,17.80
2023-05-21T04:27:10.121Z,17.70
2023-05-21T04:30:14.135Z,17.70
2023-05-21T04:33:20.406Z,17.70
2023-05-21T04:36:22.587Z,17.70
2023-05-21T04:39:24.706Z,17.80
2023-05-21T04:42:26.740Z,17.80
2023-05-21T04:45:29.620Z,17.90
2023-05-21T04:48:31.747Z,17.90
2023-05-21T04:51:33.876Z,18.00
2023-05-21T04:54:36.712Z,17.90
2023-05-21T04:57:38.962Z,18.00
2023-05-21T05:00:42.334Z,18.00
2023-05-21T05:03:48.334Z,18.00
2023-05-21T05:06:51.991Z,18.00
2023-05-21T05:09:54.146Z,18.00
2023-05-21T05:12:56.222Z,18.00
2023-05-21T05:15:58.329Z,18.00
2023-05-21T05:19:00.422Z,18.00
2023-05-21T05:22:02.532Z,18.00
2023-05-21T05:25:04.951Z,18.10
2023-05-21T05:28:07.178Z,18.20
2023-05-21T05:31:09.440Z,18.20
2023-05-21T05:34:11.652Z,18.20
2023-05-21T05:37:13.811Z,18.10
2023-05-21T05:40:16.193Z,18.10
2023-05-21T05:43:18.447Z,18.00
2023-05-21T05:46:20.813Z,18.00
2023-05-21T05:49:23.026Z,17.90
2023-05-21T05:52:25.274Z,17.80
2023-05-21T05:55:27.419Z,17.80
2023-05-21T05:58:31.255Z,17.80
2023-05-21T06:01:35.144Z,17.80
2023-05-21T06:04:37.293Z,17.90
2023-05-21T06:07:39.949Z,17.90
2023-05-21T06:10:42.087Z,18.00
2023-05-21T06:13:45.131Z,18.10
2023-05-21T06:16:47.278Z,18.10
2023-05-21T06:19:49.416Z,18.20
2023-05-21T06:22:51.487Z,18.20
2023-05-21T06:25:53.537Z,18.30
2023-05-21T06:28:55.615Z,18.30
2023-05-21T06:31:57.736Z,18.40
2023-05-21T06:34:59.951Z,18.50
2023-05-21T06:38:03.478Z,18.50
2023-05-21T06:41:05.780Z,18.50
2023-05-21T06:44:07.899Z,18.60
2023-05-21T06:47:10.059Z,18.60
2023-05-21T06:50:12.135Z,18.70
2023-05-21T06:53:16.577Z,18.70
2023-05-21T06:56:19.069Z,18.80
2023-05-21T06:59:21.152Z,18.80
2023-05-21T07:02:25.471Z,18.90
2023-05-21T07:05:27.539Z,19.00
2023-05-21T07:08:29.680Z,19.00
2023-05-21T07:11:32.554Z,19.20
2023-05-21T07:14:34.641Z,19.30
2023-05-21T07:17:37.800Z,19.30
2023-05-21T07:20:40.163Z,19.40
2023-05-21T07:23:42.255Z,19.50
2023-05-21T07:26:44.375Z,19.50
2023-05-21T07:29:46.606Z,19.60
2023-05-21T07:32:49.101Z,19.50
2023-05-21T07:35:51.496Z,19.60
2023-05-21T07:38:53.700Z,19.70
2023-05-21T07:41:55.867Z,19.80
2023-05-21T07:44:58.127Z,19.70
2023-05-21T07:48:00.346Z,19.70
2023-05-21T07:51:08.448Z,19.90
2023-05-21T07:54:11.246Z,20.20
2023-05-21T07:57:13.383Z,20.40
2023-05-21T08:00:15.904Z,20.80
2023-05-21T08:03:18.791Z,20.90
2023-05-21T08:06:22.345Z,21.50
2023-05-21T08:12:26.644Z,22.20
2023-05-21T08:15:28.827Z,22.20
2023-05-21T08:18:31.242Z,22.30
2023-05-21T08:21:34.222Z,22.10
2023-05-21T08:24:36.581Z,21.80
2023-05-21T08:27:38.765Z,21.60
2023-05-21T08:30:41.472Z,21.60
2023-05-21T08:33:51.205Z,21.50
2023-05-21T08:36:53.993Z,21.50
2023-05-21T08:39:57.093Z,21.40
2023-05-21T08:42:59.295Z,21.40
2023-05-21T08:46:04.362Z,21.40
2023-05-21T08:49:11.920Z,21.70
2023-05-21T08:52:14.344Z,21.60
2023-05-21T08:55:16.732Z,22.10
2023-05-21T08:58:19.291Z,22.40
2023-05-21T09:01:24.752Z,22.90
2023-05-21T09:04:28.815Z,24.10
2023-05-21T09:07:34.488Z,25.10
2023-05-21T09:10:41.110Z,25.90
2023-05-21T09:13:45.115Z,27.10
2023-05-21T09:16:50.204Z,26.80
2023-05-21T09:20:16.585Z,27.20
2023-05-21T09:23:19.582Z,27.60
2023-05-21T09:26:23.614Z,27.70
2023-05-21T09:29:26.937Z,28.50
2023-05-21T09:32:29.211Z,28.20
2023-05-21T09:35:31.581Z,28.60
2023-05-21T09:38:34.987Z,29.10
2023-05-21T09:41:37.851Z,29.20
2023-05-21T09:44:43.487Z,29.60
2023-05-21T09:47:46.737Z,29.50
2023-05-21T09:50:48.998Z,28.80
2023-05-21T09:53:54.750Z,28.70
2023-05-21T09:56:57.016Z,28.80
2023-05-21T09:59:59.266Z,29.00
2023-05-21T10:03:06.177Z,29.40
2023-05-21T10:06:10.190Z,29.70
2023-05-21T10:09:14.345Z,30.30
2023-05-21T10:12:19.504Z,30.20
2023-05-21T10:15:25.455Z,30.10
2023-05-21T10:18:28.413Z,30.10
2023-05-21T10:21:31.916Z,30.50
2023-05-21T10:24:35.177Z,30.40
2023-05-21T10:27:38.706Z,29.40
2023-05-21T10:30:41.985Z,29.70
2023-05-21T10:33:44.400Z,29.50
2023-05-21T10:36:49.277Z,29.90
2023-05-21T10:39:51.370Z,30.10
2023-05-21T10:43:26.823Z,30.60
2023-05-21T10:46:43.958Z,30.50
2023-05-21T10:49:57.172Z,30.50
2023-05-21T10:53:36.730Z,31.00
2023-05-21T10:56:45.043Z,30.40
2023-05-21T10:59:48.675Z,29.70
2023-05-21T11:02:53.171Z,29.90
2023-05-21T11:05:56.817Z,29.60
2023-05-21T11:09:11.547Z,29.50
2023-05-21T11:12:14.074Z,29.20
2023-05-21T11:15:16.542Z,29.60
2023-05-21T11:18:18.720Z,29.60
2023-05-21T11:21:22.764Z,29.30
2023-05-21T11:24:25.703Z,28.70
2023-05-21T11:27:41.965Z,28.20
2023-05-21T11:31:03.969Z,28.00
2023-05-21T11:34:16.357Z,28.20
2023-05-21T11:37:18.436Z,28.10
2023-05-21T11:40:26.124Z,28.00
2023-05-21T11:43:28.619Z,27.80
2023-05-21T11:46:31.692Z,27.30
2023-05-21T11:49:34.531Z,27.00
2023-05-21T11:52:36.696Z,26.70
2023-05-21T11:55:43.893Z,26.70
2023-05-21T11:58:47.049Z,26.40
2023-05-21T12:01:49.213Z,26.70
2023-05-21T12:04:51.832Z,27.10
2023-05-21T12:07:55.720Z,27.00
2023-05-21T12:11:01.981Z,26.70
2023-05-21T12:14:07.104Z,26.20
2023-05-21T12:17:10.507Z,26.10
2023-05-21T12:20:16.709Z,25.70
2023-05-21T12:23:24.500Z,25.70
2023-05-21T12:26:27.836Z,25.60
2023-05-21T12:29:33.866Z,25.40
2023-05-21T12:32:38.277Z,25.40
2023-05-21T12:35:40.674Z,25.10
2023-05-21T12:38:43.294Z,24.70
2023-05-21T12:41:45.366Z,24.40
2023-05-21T12:44:47.866Z,24.20
2023-05-21T12:47:56.074Z,24.30
2023-05-21T12:51:00.062Z,24.50
2023-05-21T12:54:02.302Z,24.50
2023-05-21T12:57:11.329Z,24.50
2023-05-21T13:00:14.576Z,24.80
2023-05-21T13:03:16.898Z,25.10
2023-05-21T13:06:19.078Z,25.20
2023-05-21T13:09:21.201Z,25.50
2023-05-21T13:12:24.932Z,25.40
2023-05-21T13:15:27.094Z,25.30
2023-05-21T13:18:29.248Z,25.30
2023-05-21T13:21:31.448Z,25.10
2023-05-21T13:24:33.669Z,25.00
2023-05-21T13:27:35.791Z,25.10
2023-05-21T13:30:38.154Z,25.10
2023-05-21T13:33:40.626Z,24.80
2023-05-21T13:36:43.641Z,24.40
2023-05-21T13:39:45.835Z,24.40
2023-05-21T13:42:49.572Z,24.80
2023-05-21T13:45:52.725Z,24.80
2023-05-21T13:48:54.845Z,24.70
2023-05-21T13:51:58.225Z,24.70
2023-05-21T13:55:00.568Z,24.90
2023-05-21T13:58:03.867Z,24.90
2023-05-21T14:01:06.095Z,25.10
2023-05-21T14:04:08.485Z,25.10
2023-05-21T14:07:12.179Z,24.90
2023-05-21T14:10:14.806Z,24.70
2023-05-21T14:13:20.084Z,24.60
2023-05-21T14:16:24.986Z,24.20
2023-05-21T14:19:27.393Z,24.20
2023-05-21T14:22:29.818Z,24.10
2023-05-21T14:25:34.027Z,23.80
2023-05-21T14:28:36.299Z,23.60
2023-05-21T14:31:38.671Z,23.10
2023-05-21T14:34:41.408Z,23.00
2023-05-21T14:37:43.593Z,22.80
2023-05-21T14:40:45.821Z,22.80
2023-05-21T14:43:47.992Z,22.80
2023-05-21T14:46:50.189Z,22.80
2023-05-21T14:49:52.412Z,22.50
2023-05-21T14:52:54.831Z,22.50
2023-05-21T14:55:56.886Z,22.60
2023-05-21T14:58:59.083Z,22.60
2023-05-21T15:02:01.321Z,22.50
2023-05-21T15:05:03.609Z,22.20
2023-05-21T15:08:08.121Z,22.10
2023-05-21T15:11:10.264Z,21.80
2023-05-21T15:14:12.844Z,22.10
2023-05-21T15:17:15.156Z,22.10
2023-05-21T15:20:19.173Z,22.20
2023-05-21T15:23:21.885Z,22.40
2023-05-21T15:26:25.645Z,22.70
2023-05-21T15:29:28.076Z,22.90
2023-05-21T15:32:31.282Z,23.20
2023-05-21T15:35:35.670Z,23.30
2023-05-21T15:38:38.425Z,23.60
2023-05-21T15:41:40.665Z,23.80
2023-05-21T15:44:43.590Z,23.80
2023-05-21T15:47:45.789Z,23.90
2023-05-21T15:50:48.704Z,23.70
2023-05-21T15:53:50.810Z,23.70
2023-05-21T15:56:52.862Z,23.80
2023-05-21T15:59:55.610Z,23.70
2023-05-21T16:02:57.858Z,23.80
2023-05-21T16:05:59.960Z,23.90
2023-05-21T16:09:02.490Z,24.00
2023-05-21T16:12:04.826Z,24.10
2023-05-21T16:15:07.383Z,24.10
2023-05-21T16:18:10.049Z,24.20
2023-05-21T16:21:12.739Z,24.10
2023-05-21T16:24:16.099Z,24.20
2023-05-21T16:27:18.232Z,24.10
2023-05-21T16:30:20.618Z,24.10
2023-05-21T16:33:23.125Z,24.00
2023-05-21T16:36:25.372Z,23.80
2023-05-21T16:39:27.461Z,23.60
2023-05-21T16:42:29.592Z,23.50
2023-05-21T16:45:46.389Z,23.20
2023-05-21T16:48:48.581Z,23.00
2023-05-21T16:51:50.806Z,23.10
2023-05-21T16:54:52.966Z,23.10
2023-05-21T16:57:55.082Z,23.30
2023-05-21T17:00:57.571Z,23.40
2023-05-21T17:03:59.738Z,23.60
2023-05-21T17:07:01.860Z,23.70
2023-05-21T17:10:06.155Z,23.90
2023-05-21T17:13:18.237Z,24.00
2023-05-21T17:16:25.049Z,24.10
2023-05-21T17:19:27.608Z,23.70
2023-05-21T17:22:29.903Z,23.50
2023-05-21T17:25:34.228Z,23.50
2023-05-21T17:28:36.774Z,23.50
2023-05-21T17:31:38.915Z,23.60
2023-05-21T17:34:41.195Z,23.70
2023-05-21T17:37:43.276Z,23.80
2023-05-21T17:40:45.390Z,23.80
2023-05-21T17:43:47.848Z,23.70
2023-05-21T17:46:51.082Z,23.70
2023-05-21T17:49:53.296Z,23.60
2023-05-21T17:52:55.575Z,23.40
2023-05-21T17:55:57.833Z,23.20
2023-05-21T17:58:59.975Z,23.20
2023-05-21T18:02:02.248Z,23.00
2023-05-21T18:05:05.877Z,23.10
2023-05-21T18:08:10.144Z,23.10
2023-05-21T18:11:12.285Z,23.10
2023-05-21T18:14:14.526Z,23.00
2023-05-21T18:17:16.633Z,22.90
2023-05-21T18:20:18.905Z,22.80
2023-05-21T18:23:21.187Z,22.70
2023-05-21T18:26:23.275Z,22.70
2023-05-21T18:29:25.524Z,22.60
2023-05-21T18:32:27.893Z,22.50
2023-05-21T18:35:31.329Z,22.40
2023-05-21T18:38:33.935Z,22.20
2023-05-21T18:41:37.471Z,22.20
2023-05-21T18:44:39.920Z,22.30
2023-05-21T18:47:43.139Z,22.30
2023-05-21T18:50:45.633Z,22.20
2023-05-21T18:53:48.590Z,22.10
2023-05-21T18:56:50.707Z,22.20
2023-05-21T18:59:52.789Z,22.20
2023-05-21T19:02:56.535Z,22.10
2023-05-21T19:05:58.717Z,22.10
2023-05-21T19:09:01.711Z,22.00
2023-05-21T19:12:04.154Z,21.90
2023-05-21T19:15:07.198Z,21.80
2023-05-21T19:18:09.491Z,21.80
2023-05-21T19:21:11.895Z,21.70
2023-05-21T19:24:14.197Z,21.60
2023-05-21T19:27:16.637Z,21.50
2023-05-21T19:30:18.889Z,21.40
2023-05-21T19:33:21.111Z,21.20
2023-05-21T19:36:24.468Z,21.10
2023-05-21T19:39:27.413Z,21.00
2023-05-21T19:42:29.474Z,21.00
2023-05-21T19:45:32.076Z,21.00
2023-05-21T19:48:36.311Z,21.00
2023-05-21T19:51:38.833Z,20.90
2023-05-21T19:54:41.158Z,20.80
2023-05-21T19:57:43.386Z,20.80
2023-05-21T20:00:48.582Z,20.60
2023-05-21T20:03:51.014Z,20.40
2023-05-21T20:06:55.534Z,20.30
2023-05-21T20:09:57.709Z,20.20
2023-05-21T20:13:00.916Z,20.20
2023-05-21T20:16:03.219Z,20.20
2023-05-21T20:19:06.389Z,20.20
2023-05-21T20:22:08.749Z,20.10
2023-05-21T20:25:10.967Z,20.10
2023-05-21T20:28:13.073Z,20.00
2023-05-21T20:31:15.350Z,19.90
2023-05-21T20:34:17.747Z,19.80
2023-05-21T20:37:21.847Z,19.50
2023-05-21T20:40:24.031Z,19.40
2023-05-21T20:43:26.179Z,19.20
2023-05-21T20:46:31.516Z,19.10
2023-05-21T20:49:33.815Z,19.00
2023-05-21T20:52:41.152Z,18.90
2023-05-21T20:55:47.482Z,19.00
2023-05-21T20:58:49.659Z,19.00
2023-05-21T21:01:52.726Z,19.10
2023-05-21T21:04:55.094Z,19.10
2023-05-21T21:07:57.200Z,19.10
2023-05-21T21:10:59.431Z,19.10
2023-05-21T21:14:02.754Z,19.10
2023-05-21T21:17:06.369Z,19.20
2023-05-21T21:20:11.032Z,19.30
2023-05-21T21:23:13.157Z,19.30
2023-05-21T21:26:15.276Z,19.40
2023-05-21T21:29:17.503Z,19.40
2023-05-21T21:32:19.598Z,19.50
2023-05-21T21:35:21.858Z,19.50
2023-05-21T21:38:24.127Z,19.50
2023-05-21T21:41:26.476Z,19.50
2023-05-21T21:44:28.790Z,19.50
2023-05-21T21:47:31.052Z,19.60
2023-05-21T21:50:33.691Z,19.60
2023-05-21T21:53:36.918Z,19.60
2023-05-21T21:56:39.021Z,19.70
2023-05-21T21:59:41.245Z,19.80
2023-05-21T22:02:44.175Z,19.70
2023-05-21T22:05:46.436Z,19.80
2023-05-21T22:08:48.916Z,19.80
2023-05-21T22:11:52.177Z,19.80
2023-05-21T22:14:55.518Z,19.70
2023-05-21T22:17:57.973Z,19.60
2023-05-21T22:21:00.320Z,19.60
2023-05-21T22:24:02.400Z,19.60
2023-05-21T22:27:05.108Z,19.60
2023-05-21T22:30:08.295Z,19.60
2023-05-21T22:33:12.184Z,19.50
2023-05-21T22:36:14.462Z,19.50
2023-05-21T22:39:17.853Z,19.50
2023-05-21T22:42:20.095Z,19.50
2023-05-21T22:45:22.306Z,19.50
2023-05-21T22:48:24.379Z,19.50
2023-05-21T22:51:28.915Z,19.40
2023-05-21T22:54:34.219Z,19.50
2023-05-21T22:57:43.021Z,19.40
2023-05-21T23:00:45.864Z,19.30
2023-05-21T23:03:49.282Z,19.30
2023-05-21T23:06:52.121Z,19.30
2023-05-21T23:09:54.370Z,19.30
2023-05-21T23:12:56.549Z,19.20
2023-05-21T23:15:59.017Z,19.20
2023-05-21T23:19:01.633Z,19.20
2023-05-21T23:22:03.962Z,19.20
2023-05-21T23:25:06.735Z,19.20
2023-05-21T23:28:08.964Z,19.20
2023-05-21T23:31:13.595Z,19.10
2023-05-21T23:34:16.013Z,19.10
2023-05-21T23:37:19.120Z,19.10
2023-05-21T23:40:21.307Z,19.00
2023-05-21T23:43:23.740Z,19.00
2023-05-21T23:46:25.885Z,19.10
2023-05-21T23:49:28.043Z,19.00
2023-05-21T23:52:30.296Z,19.10
2023-05-21T23:55:32.434Z,19.10
2023-05-21T23:58:34.640Z,19.10
